Latest Coastal Weather Observations for Swan Island

IDT60701

Issued at 4:52 am EST Sunday 31 May 2015 (issued every 10 minutes, with the page automatically refreshed every 10 minutes)

About coastal observations | Map of coastal stations | Coastal observations for TAS | Marine services | Other Formats
Station Details ID: 092123 Name: SWAN ISLAND Lat: -40.73 Lon: 148.12 Height: 15.0 m
Data from the previous 72 hours. | See also: Recent months at Swan Island
Date/Time
EST
Temp

°C
Wind Pressure Rain
since 9am
mm
Weather Cloud Vis
km
Sea
Height
m
Swell
Dir
 
Speed
knots
Gust
knots
hPa Trend Height
m
Period
s
Dir
31/04:30am 12.7 WNW 26 39 1003.3 - 4.0 - - - - - - -
31/04:00am 12.3 WNW 26 38 1003.8 - 4.0 - - - - - - -
31/03:30am 12.4 WNW 25 36 1004.1 - 3.8 - - - - - - -
31/03:00am 12.3 WNW 26 36 1004.1 - 3.8 - - - - - - -
31/02:30am 12.8 WNW 26 37 1004.5 - 3.8 - - - - - - -
31/02:08am 12.3 WNW 24 34 1004.6 - 3.8 - - - - - - -
31/02:00am 12.4 WNW 23 32 1004.7 - 3.8 - - - - - - -
31/01:39am 11.8 WNW 22 32 1005.0 - 3.8 - - - - - - -
31/01:30am 11.6 WNW 22 31 1005.1 - 3.8 - - - - - - -
31/01:00am 12.0 WNW 24 35 1005.8 - 3.6 - - - - - - -
31/12:35am 12.7 WNW 27 37 1005.4 - 2.4 - - - - - - -
31/12:30am 12.7 WNW 26 36 1005.5 - 2.4 - - - - - - -
31/12:03am 12.3 WNW 25 36 1005.8 - 2.4 - - - - - - -
31/12:00am 12.3 WNW 23 33 1005.8 - 2.4 Recent precip. - - - - - -
 
Date/Time
EST
Temp

°C
Wind Pressure Rain
since 9am
mm
Weather Cloud Vis
km
Sea
Height
m
Swell
Dir
 
Speed
knots
Gust
knots
hPa Trend Height
m
Period
s
Dir
30/11:30pm 11.0 WNW 27 41 1006.3 - 2.4 - - - - - - -
30/11:04pm 13.2 WNW 24 35 1006.3 - 1.8 - - - - - - -
30/11:00pm 13.1 WNW 24 33 1006.3 - 1.8 - - - - - - -
30/10:32pm 12.7 WNW 25 35 1006.5 - 1.8 - - - - - - -
30/10:30pm 12.6 WNW 24 34 1006.5 - 1.8 - - - - - - -
30/10:02pm 12.7 WNW 25 35 1006.7 - 1.8 - - - - - - -
30/10:00pm 12.8 WNW 25 34 1006.8 - 1.8 - - - - - - -
30/09:34pm 13.1 WNW 21 33 1007.2 - 1.6 - - - - - - -
30/09:30pm 13.1 WNW 20 28 1007.3 - 1.6 - - - - - - -
30/09:16pm 12.8 WNW 23 33 1007.2 - 1.6 - - - - - - -
30/09:00pm 13.0 WNW 26 36 1007.0 - 1.6 - - - - - - -
30/08:30pm 12.9 WNW 26 39 1007.1 - 1.6 - - - - - - -
30/08:05pm 12.4 WNW 23 33 1007.4 - 1.6 - - - - - - -
30/08:00pm 12.4 WNW 23 31 1007.4 - 1.6 - - - - - - -
30/07:30pm 11.6 W 22 40 1007.3 - 1.6 - - - - - - -
30/07:00pm 13.1 WNW 25 37 1006.6 - 1.0 - - - - - - -
30/06:30pm 13.0 WNW 26 37 1006.2 - 1.0 - - - - - - -
30/06:00pm 12.9 WNW 26 37 1005.7 - 1.0 Recent precip. - - - - - -
30/05:30pm 12.1 WNW 30 40 1005.5 - 1.0 - - - - - - -
30/05:00pm 12.0 WNW 27 39 1005.5 - 0.8 - - - - - - -
30/04:30pm 13.5 WNW 33 46 1005.1 - 0.4 - - - - - - -
30/04:00pm 13.7 WNW 29 41 1005.0 - 0.4 - - - - - - -
30/03:30pm 13.5 NW 35 46 1005.6 - 0.4 - - - - - - -
30/03:00pm 13.2 NW 34 47 1005.7 - 0.4 Recent precip. - - - - - -
30/02:30pm 12.9 NW 34 46 1006.0 - 0.4 - - - - - - -
30/02:00pm 13.2 NW 30 42 1006.4 - 0.0 - - - - - - -
30/01:30pm 13.3 NW 30 43 1006.9 - 0.0 - - - - - - -
30/01:00pm 13.3 NW 31 43 1007.5 - 0.0 - - - - - - -
30/12:30pm 13.9 NW 30 43 1007.8 - 0.0 - - - - - - -
30/12:00pm 14.2 NW 31 42 1008.3 - 0.0 - - - - - - -
30/11:30am 13.9 NW 32 45 1009.1 - 0.0 - - - - - - -
30/11:00am 13.9 NW 30 43 1009.8 - 0.0 - - - - - - -
30/10:30am 13.3 NW 30 42 1010.5 - 0.0 - - - - - - -
30/10:00am 13.3 NW 29 43 1010.9 - 0.0 - - - - - - -
30/09:35am 13.0 NW 28 38 1011.0 - 0.0 - - - - - - -
30/09:30am 12.8 NW 27 37 1011.2 - 0.0 - - - - - - -
30/09:01am 12.5 NW 27 37 1011.8 - 0.0 - - - - - - -
30/09:00am 12.5 NW 28 37 1011.8 - 1.4 - - - - - - -
30/08:30am 13.1 NW 25 37 1011.9 - 1.4 - - - - - - -
30/08:12am 12.8 NW 23 37 1012.1 - 1.4 - - - - - - -
30/08:00am 12.8 NW 26 35 1012.4 - 1.4 - - - - - - -
30/07:39am 13.1 NW 24 34 1012.4 - 1.4 - - - - - - -
30/07:30am 13.1 NW 24 33 1012.4 - 1.4 - - - - - - -
30/07:02am 12.9 NW 23 33 1012.7 - 1.4 - - - - - - -
30/07:00am 12.9 NW 24 33 1012.6 - 1.4 - - - - - - -
30/06:30am 13.0 NW 21 31 1012.9 - 1.4 - - - - - - -
30/06:28am 12.9 NW 21 31 1012.8 - 1.4 - - - - - - -
30/06:00am 12.9 NW 20 28 1013.1 - 1.4 - - - - - - -
30/05:30am 12.7 NW 22 30 1013.3 - 1.4 - - - - - - -
30/05:00am 12.9 NW 22 31 1013.4 - 1.4 - - - - - - -
30/04:30am 12.5 WNW 22 31 1013.4 - 1.4 - - - - - - -
30/04:00am 12.1 NW 21 28 1013.8 - 1.4 - - - - - - -
30/03:48am 11.6 WNW 17 27 1014.1 - 1.4 - - - - - - -
30/03:30am 12.6 NW 20 26 1014.3 - 0.8 - - - - - - -
30/03:00am 13.2 NW 21 27 1014.7 - 0.8 - - - - - - -
30/02:30am 13.1 WNW 19 29 1015.1 - 0.8 - - - - - - -
30/02:25am 12.9 WNW 18 29 1015.2 - 0.8 - - - - - - -
30/02:00am 12.9 WNW 20 26 1015.4 - 0.8 - - - - - - -
30/01:30am 13.0 WNW 18 24 1015.7 - 0.8 - - - - - - -
30/01:00am 12.8 WNW 17 25 1015.9 - 0.8 - - - - - - -
30/12:30am 13.0 WNW 18 25 1016.1 - 0.8 - - - - - - -
30/12:00am 12.8 WNW 17 24 1016.4 - 0.8 - - - - - - -
 
Date/Time
EST
Temp

°C
Wind Pressure Rain
since 9am
mm
Weather Cloud Vis
km
Sea
Height
m
Swell
Dir
 
Speed
knots
Gust
knots
hPa Trend Height
m
Period
s
Dir
29/11:30pm 12.4 WNW 18 25 1016.7 - 0.8 - - - - - - -
29/11:00pm 12.0 WNW 15 20 1016.8 - 0.8 - - - - - - -
29/10:30pm 12.3 WNW 14 21 1016.9 - 0.6 - - - - - - -
29/10:17pm 12.0 WNW 16 26 1017.2 - 0.6 - - - - - - -
29/10:00pm 12.6 WNW 16 23 1017.1 - 0.6 - - - - - - -
29/09:30pm 12.2 WNW 19 25 1017.2 - 0.6 - - - - - - -
29/09:00pm 11.9 WNW 15 25 1017.3 - 0.6 - - - - - - -
29/08:30pm 11.9 WNW 14 22 1017.3 - 0.6 - - - - - - -
29/08:00pm 12.3 WNW 15 25 1017.2 - 0.6 - - - - - - -
29/07:51pm 12.3 WNW 15 25 1017.2 - 0.6 - - - - - - -
29/07:30pm 12.2 WNW 14 23 1016.9 - 0.6 - - - - - - -
29/07:00pm 11.9 WNW 19 26 1016.6 - 0.6 - - - - - - -
29/06:38pm 11.6 WNW 15 25 1016.7 - 0.6 - - - - - - -
29/06:30pm 11.5 WNW 16 23 1016.6 - 0.6 - - - - - - -
29/06:00pm 11.3 WNW 16 21 1016.5 - 0.4 Recent precip. - - - - - -
29/05:43pm 12.1 W 15 26 1016.4 - 0.2 - - - - - - -
29/05:30pm 12.4 WNW 18 26 1016.2 - 0.2 - - - - - - -
29/05:13pm 12.1 WNW 17 27 1016.3 - 0.2 - - - - - - -
29/05:00pm 12.1 WNW 17 26 1016.1 - 0.2 - - - - - - -
29/04:37pm 12.5 WNW 18 29 1015.8 - 0.2 - - - - - - -
29/04:30pm 12.3 WNW 18 24 1015.8 - 0.2 - - - - - - -
29/04:00pm 12.8 WNW 18 27 1015.7 - 0.2 - - - - - - -
29/03:30pm 12.7 WNW 20 28 1015.4 - 0.2 - - - - - - -
29/03:00pm 12.7 WNW 18 34 1015.4 - 0.2 - - - - - - -
29/02:59pm 12.8 WNW 17 34 1015.4 - 0.2 - - - - - - -
29/02:30pm 13.4 WNW 17 26 1015.2 - 0.2 - - - - - - -
29/02:00pm 13.7 WNW 20 27 1015.2 - 0.2 - - - - - - -
29/01:45pm 12.9 W 17 29 1015.2 - 0.2 - - - - - - -
29/01:30pm 12.5 W 17 25 1015.3 - 0.2 - - - - - - -
29/01:00pm 13.4 W 17 23 1015.3 - 0.2 - - - - - - -
29/12:30pm 12.9 W 21 31 1015.4 - 0.2 - - - - - - -
29/12:00pm 13.1 W 19 32 1015.4 - 0.2 - - - - - - -
29/11:53am 12.7 W 20 32 1015.3 - 0.2 - - - - - - -
29/11:30am 12.7 W 20 28 1015.2 - 0.2 - - - - - - -
29/11:13am 12.7 W 19 34 1015.2 - 0.2 - - - - - - -
29/11:00am 12.5 W 22 31 1015.3 - 0.2 - - - - - - -
29/10:30am 12.3 W 21 32 1015.1 - 0.2 - - - - - - -
29/10:01am 11.5 W 22 33 1015.1 - 0.2 - - - - - - -
29/10:00am 11.3 W 23 33 1015.1 - 0.2 - - - - - - -
29/09:48am 11.6 W 18 30 1015.1 - 0.0 - - - - - - -
29/09:30am 11.1 W 18 27 1014.8 - 0.0 - - - - - - -
29/09:00am 10.9 W 18 25 1014.6 - 4.2 - - - - - - -
29/08:30am 10.4 WSW 16 24 1014.7 - 4.2 - - - - - - -
29/08:00am 11.4 W 23 34 1014.1 - 4.2 - - - - - - -
29/07:53am 11.3 W 21 34 1014.0 - 4.2 - - - - - - -
29/07:30am 11.3 W 22 32 1013.6 - 4.2 - - - - - - -
29/07:21am 11.1 W 20 30 1013.5 - 4.2 - - - - - - -
29/07:00am 10.9 W 22 31 1013.4 - 4.2 - - - - - - -
29/06:30am 10.6 W 20 28 1013.3 - 4.2 - - - - - - -
29/06:00am 10.0 W 19 27 1013.2 - 4.2 Recent precip. - - - - - -
29/05:30am 8.8 W 26 37 1013.1 - 4.2 - - - - - - -
29/05:02am 11.5 WNW 19 29 1012.2 - 3.4 - - - - - - -
29/05:00am 11.6 W 19 29 1012.2 - 3.4 - - - - - - -
29/04:33am 11.2 W 21 32 1012.3 - 3.4 - - - - - - -
29/04:30am 11.8 W 22 31 1012.0 - 3.4 - - - - - - -
29/04:00am 11.5 W 20 31 1011.6 - 3.4 - - - - - - -
29/03:30am 11.5 WNW 19 29 1011.4 - 3.4 - - - - - - -
29/03:00am 10.6 W 23 35 1011.2 - 3.4 Recent precip. - - - - - -
29/02:30am 10.2 W 23 35 1011.2 - 3.4 - - - - - - -
29/02:00am 11.6 WNW 20 33 1011.0 - 3.2 - - - - - - -
29/01:41am 12.0 W 19 29 1010.7 - 3.0 - - - - - - -
29/01:30am 12.8 WNW 20 27 1010.5 - 3.0 - - - - - - -
29/01:00am 12.6 WNW 19 27 1010.5 - 3.0 - - - - - - -
29/12:55am 12.6 WNW 20 30 1010.5 - 3.0 - - - - - - -
29/12:30am 12.6 WNW 18 27 1010.6 - 3.0 - - - - - - -
29/12:01am 12.2 WNW 19 29 1010.6 - 3.0 - - - - - - -
29/12:00am 12.2 WNW 20 29 1010.6 - 3.0 Recent precip. - - - - - -
 
Date/Time
EST
Temp

°C
Wind Pressure Rain
since 9am
mm
Weather Cloud Vis
km
Sea
Height
m
Swell
Dir
 
Speed
knots
Gust
knots
hPa Trend Height
m
Period
s
Dir
28/11:30pm 12.4 WNW 17 24 1010.7 - 2.8 - - - - - - -
28/11:00pm 12.2 WNW 18 24 1010.5 - 2.8 - - - - - - -
28/10:30pm 11.5 WNW 18 26 1010.5 - 2.8 - - - - - - -
28/10:00pm 12.2 WNW 18 25 1010.4 - 2.4 - - - - - - -
28/09:30pm 12.2 WNW 17 25 1010.5 - 1.8 - - - - - - -
28/09:00pm 12.7 WNW 14 20 1010.3 - 1.6 - - - - - - -
28/08:30pm 13.0 WNW 16 23 1010.3 - 1.6 - - - - - - -
28/08:01pm 12.9 WNW 17 28 1010.0 - 1.6 - - - - - - -
28/08:00pm 12.9 WNW 18 28 1010.0 - 1.6 - - - - - - -
28/07:30pm 13.0 WNW 22 36 1009.6 - 1.4 - - - - - - -
28/07:21pm 15.0 NW 20 36 1009.9 - 0.4 - - - - - - -
28/07:00pm 15.2 NW 22 28 1009.3 - 0.0 - - - - - - -
28/06:30pm 15.1 NNW 21 24 1009.3 - 0.0 - - - - - - -
28/06:00pm 15.3 NW 21 26 1009.5 - 0.0 - - - - - - -
28/05:30pm 15.4 NW 24 30 1009.5 - 0.0 - - - - - - -
28/05:00pm 15.3 NNW 23 28 1009.4 - 0.0 - - - - - - -
28/04:30pm 15.1 NNW 21 25 1009.4 - 0.0 - - - - - - -
28/04:00pm 15.2 NNW 22 27 1009.6 - 0.0 - - - - - - -
28/03:30pm 15.3 NNW 24 28 1009.7 - 0.0 - - - - - - -
28/03:00pm 15.3 NNW 23 27 1010.2 - 0.0 - - - - - - -
28/02:30pm 15.3 NNW 23 28 1010.5 - 0.0 - - - - - - -
28/02:00pm 15.3 NNW 24 29 1010.6 - 0.0 - - - - - - -
28/01:30pm 15.4 NNW 23 26 1010.9 - 0.0 - - - - - - -
28/01:00pm 15.2 NNW 21 26 1011.4 - 0.0 - - - - - - -
28/12:30pm 14.9 NNW 20 23 1011.8 - 0.0 - - - - - - -
28/12:00pm 15.4 NNW 21 26 1012.2 - 0.0 - - - - - - -
28/11:30am 15.3 NNW 20 23 1012.9 - 0.0 - - - - - - -
28/11:00am 15.0 NNW 20 23 1013.2 - 0.0 - - - - - - -
28/10:30am 14.7 N 21 25 1013.7 - 0.0 - - - - - - -
28/10:00am 14.7 NNW 19 22 1014.1 - 0.0 - - - - - - -
28/09:30am 14.9 NNW 21 25 1014.2 - 0.0 - - - - - - -
28/09:00am 14.4 NW 20 24 1014.4 - 1.4 Recent precip. - - - - - -
28/08:30am 14.1 NW 20 25 1014.3 - 1.4 - - - - - - -
28/08:00am 14.2 NW 23 31 1014.7 - 1.2 - - - - - - -
28/07:30am 14.6 NNW 19 23 1014.2 - 0.0 - - - - - - -
28/07:00am 14.6 NNW 19 22 1014.1 - 0.0 - - - - - - -
28/06:30am 14.6 NNW 18 21 1014.2 - 0.0 - - - - - - -
28/06:00am 14.6 NNW 18 21 1014.2 - 0.0 - - - - - - -
28/05:30am 14.6 NNW 16 19 1014.0 - 0.0 - - - - - - -
28/05:00am 15.0 NNW 17 25 1014.3 - 0.0 - - - - - - -

Other Formats:

Comma delimited format used in spreadsheet applications
http://www.bom.gov.au/fwo/IDT60701/IDT60701.95985.axf

JavaScript Object Notation format (JSON) in row-major order
http://www.bom.gov.au/fwo/IDT60701/IDT60701.95985.json